Terminal Aerodrome Forecast
Issued by NWS

Home | Current Version | Previous Version | Text Only | Print | Product List | Glossary On
Versions: 1 2 3 4 5 6 7 8 9 10 11 12 13 14 15 16 17
000
FTUS46 KSEW 012300
TAFBLI
TAF
KBLI 012320Z 0200/0224 18007KT P6SM BKN060
     FM020300 17004KT P6SM SCT060
     FM020900 00000KT P6SM MIFG SCT100
      TEMPO 0212/0215 2SM BCFG BKN001 BKN100
     FM021600 VRB04KT P6SM SCT100 SCT250=

USA.gov is the U.S. government's official web portal to all federal, state and local government web resources and services.